createdAt,value
2023-02-27T00:01:37.579Z,4.70
2023-02-27T00:06:39.677Z,4.30
2023-02-27T00:11:43.416Z,4.10
2023-02-27T00:16:45.219Z,3.70
2023-02-27T00:21:48.148Z,3.00
2023-02-27T00:26:50.542Z,3.80
2023-02-27T00:32:00.284Z,3.90
2023-02-27T00:37:04.575Z,3.90
2023-02-27T00:42:06.320Z,3.80
2023-02-27T00:47:08.154Z,4.00
2023-02-27T00:52:13.444Z,3.10
2023-02-27T00:57:15.648Z,4.30
2023-02-27T01:02:20.665Z,3.90
2023-02-27T01:07:24.837Z,4.90
2023-02-27T01:12:26.803Z,4.10
2023-02-27T01:17:28.499Z,4.70
2023-02-27T01:22:33.755Z,3.50
2023-02-27T01:27:36.474Z,2.90
2023-02-27T01:32:38.888Z,2.90
2023-02-27T01:37:41.054Z,2.70
2023-02-27T01:42:42.720Z,3.00
2023-02-27T01:47:50.296Z,2.60
2023-02-27T01:52:56.374Z,2.90
2023-02-27T01:57:58.603Z,2.20
2023-02-27T02:03:43.999Z,2.40
2023-02-27T02:08:48.712Z,2.70
2023-02-27T02:13:55.812Z,2.50
2023-02-27T02:19:15.444Z,2.30
2023-02-27T02:24:44.722Z,2.90
2023-02-27T02:30:08.408Z,2.70
2023-02-27T02:35:28.782Z,2.40
2023-02-27T02:40:44.802Z,2.60
2023-02-27T02:46:08.443Z,2.20
2023-02-27T02:51:39.960Z,3.30
2023-02-27T02:56:50.877Z,2.70
2023-02-27T03:02:13.391Z,3.40
2023-02-27T03:07:38.053Z,4.50
2023-02-27T03:12:44.367Z,4.60
2023-02-27T03:17:56.087Z,4.50
2023-02-27T03:23:02.640Z,3.50
2023-02-27T03:28:09.404Z,3.30
2023-02-27T03:33:20.556Z,3.20
2023-02-27T03:38:37.116Z,2.60
2023-02-27T03:43:53.080Z,2.80
2023-02-27T03:48:55.356Z,2.30
2023-02-27T03:54:17.035Z,2.70
2023-02-27T03:59:19.142Z,2.30
2023-02-27T04:04:21.205Z,2.90
2023-02-27T04:09:41.839Z,2.10
2023-02-27T04:14:56.959Z,2.60
2023-02-27T04:20:34.032Z,2.40
2023-02-27T04:26:08.001Z,2.10
2023-02-27T04:31:20.891Z,1.80
2023-02-27T04:36:38.488Z,2.60
2023-02-27T04:42:06.574Z,2.50
2023-02-27T04:47:12.494Z,2.30
2023-02-27T04:52:22.949Z,3.30
2023-02-27T04:57:32.684Z,3.30
2023-02-27T05:02:39.555Z,3.50
2023-02-27T05:07:59.549Z,3.90
2023-02-27T05:13:20.967Z,3.20
2023-02-27T05:18:24.956Z,3.60
2023-02-27T05:23:48.119Z,4.20
2023-02-27T05:29:06.098Z,5.20
2023-02-27T05:34:17.771Z,5.80
2023-02-27T05:39:23.677Z,5.40
2023-02-27T05:44:35.483Z,5.20
2023-02-27T05:49:46.108Z,5.20
2023-02-27T05:54:57.251Z,4.20
2023-02-27T06:00:09.243Z,3.90
2023-02-27T06:05:13.374Z,4.00
2023-02-27T06:10:18.024Z,4.60
2023-02-27T06:15:19.850Z,4.50
2023-02-27T06:20:21.744Z,3.80
2023-02-27T06:25:23.388Z,4.70
2023-02-27T06:30:25.110Z,3.50
2023-02-27T06:35:29.701Z,3.60
2023-02-27T06:40:31.791Z,3.20
2023-02-27T06:45:33.444Z,3.40
2023-02-27T06:50:35.617Z,2.70
2023-02-27T06:55:37.315Z,3.70
2023-02-27T07:00:38.943Z,1.70
2023-02-27T07:05:41.854Z,3.10
2023-02-27T07:10:47.463Z,2.00
2023-02-27T07:15:50.731Z,1.90
2023-02-27T07:20:52.867Z,2.00
2023-02-27T07:25:54.504Z,1.70
2023-02-27T07:30:56.346Z,2.50
2023-02-27T07:35:58.120Z,1.60
2023-02-27T07:41:00.000Z,2.20
2023-02-27T07:46:04.444Z,2.00
2023-02-27T07:51:06.628Z,2.70
2023-02-27T07:56:08.840Z,2.30
2023-02-27T08:01:10.389Z,2.70
2023-02-27T08:06:11.973Z,1.70
2023-02-27T08:11:13.803Z,2.50
2023-02-27T08:16:15.357Z,1.90
2023-02-27T08:21:17.257Z,2.10
2023-02-27T08:26:19.301Z,2.60
2023-02-27T08:31:20.998Z,1.70
2023-02-27T08:36:22.566Z,1.60
2023-02-27T08:41:24.104Z,2.70
2023-02-27T08:46:26.387Z,2.30
2023-02-27T08:51:28.743Z,2.30
2023-02-27T08:56:30.545Z,1.70
2023-02-27T09:01:34.732Z,1.50
2023-02-27T09:06:36.495Z,1.30
2023-02-27T09:11:38.889Z,1.20
2023-02-27T09:16:41.120Z,1.20
2023-02-27T09:21:42.997Z,1.30
2023-02-27T09:26:46.432Z,1.10
2023-02-27T09:31:48.559Z,1.00
2023-02-27T09:36:50.852Z,1.00
2023-02-27T09:42:15.614Z,1.00
2023-02-27T09:47:25.745Z,1.80
2023-02-27T09:52:30.292Z,1.70
2023-02-27T09:57:44.526Z,1.40
2023-02-27T10:03:03.979Z,1.10
2023-02-27T10:08:11.361Z,1.40
2023-02-27T10:13:47.292Z,0.90
2023-02-27T10:19:15.642Z,1.30
2023-02-27T10:24:33.512Z,1.50
2023-02-27T10:29:42.541Z,1.40
2023-02-27T10:34:49.782Z,1.80
2023-02-27T10:40:01.247Z,1.70
2023-02-27T10:45:07.224Z,1.50
2023-02-27T10:50:21.387Z,1.40
2023-02-27T10:55:27.267Z,2.00
2023-02-27T11:00:53.533Z,1.90
2023-02-27T11:06:13.883Z,1.90
2023-02-27T11:11:27.586Z,1.30
2023-02-27T11:16:49.883Z,1.60
2023-02-27T11:22:01.787Z,1.50
2023-02-27T11:27:18.404Z,1.90
2023-02-27T11:32:20.248Z,1.90
2023-02-27T11:37:35.458Z,1.90
2023-02-27T11:42:43.841Z,1.60
2023-02-27T11:47:51.666Z,1.40
2023-02-27T11:52:56.806Z,2.90
2023-02-27T11:58:09.693Z,2.00
2023-02-27T12:03:42.728Z,2.20
2023-02-27T12:08:55.260Z,2.10
2023-02-27T12:14:04.634Z,1.80
2023-02-27T12:19:13.957Z,2.50
2023-02-27T12:24:25.080Z,1.50
2023-02-27T12:29:40.199Z,2.20
2023-02-27T12:34:50.247Z,2.00
2023-02-27T12:39:55.681Z,1.70
2023-02-27T12:45:26.825Z,1.90
2023-02-27T12:50:56.878Z,1.80
2023-02-27T12:56:10.389Z,1.60
2023-02-27T13:01:42.135Z,1.20
2023-02-27T13:06:49.990Z,1.70
2023-02-27T13:12:31.323Z,2.10
2023-02-27T13:17:45.589Z,2.10
2023-02-27T13:22:56.322Z,2.30
2023-02-27T13:28:03.076Z,1.70
2023-02-27T13:33:38.803Z,1.80
2023-02-27T13:38:54.909Z,2.00
2023-02-27T13:44:20.951Z,2.90
2023-02-27T13:49:29.501Z,2.40
2023-02-27T13:54:34.883Z,3.40
2023-02-27T13:59:39.791Z,3.20
2023-02-27T14:04:53.015Z,3.10
2023-02-27T14:10:11.167Z,2.80
2023-02-27T14:15:22.419Z,2.20
2023-02-27T14:20:30.832Z,2.30
2023-02-27T14:25:39.353Z,2.60
2023-02-27T14:30:59.048Z,2.80
2023-02-27T14:36:17.336Z,1.90
2023-02-27T14:41:38.344Z,2.30
2023-02-27T14:46:41.060Z,2.70
2023-02-27T14:51:44.382Z,3.20
2023-02-27T14:57:06.914Z,1.80
2023-02-27T15:02:30.813Z,2.50
2023-02-27T15:07:34.734Z,2.70
2023-02-27T15:12:40.108Z,1.70
2023-02-27T15:17:45.442Z,2.10
2023-02-27T15:22:47.269Z,2.80
2023-02-27T15:27:49.117Z,2.10
2023-02-27T15:32:51.342Z,3.10
2023-02-27T15:37:56.141Z,3.10
2023-02-27T15:43:00.309Z,4.50
2023-02-27T15:48:03.728Z,4.20
2023-02-27T15:53:12.246Z,5.30
2023-02-27T15:58:24.486Z,5.90
2023-02-27T16:03:30.948Z,5.30
2023-02-27T16:08:32.708Z,5.00
2023-02-27T16:13:40.241Z,4.40
2023-02-27T16:18:57.884Z,5.20
2023-02-27T18:48:54.404Z,7.00
2023-02-27T18:53:56.277Z,6.50
2023-02-27T18:59:02.119Z,6.10
2023-02-27T19:04:06.222Z,8.50
2023-02-27T19:09:11.192Z,8.00
2023-02-27T19:14:14.292Z,8.20
2023-02-27T19:19:16.196Z,5.30
2023-02-27T19:24:17.730Z,8.10
2023-02-27T19:29:19.292Z,7.30
2023-02-27T19:34:20.895Z,5.10
2023-02-27T19:39:23.007Z,9.10
2023-02-27T19:44:26.696Z,5.50
2023-02-27T19:49:28.375Z,4.70
2023-02-27T19:54:31.129Z,3.70
2023-02-27T19:59:32.808Z,4.90
2023-02-27T20:04:34.783Z,5.10
2023-02-27T20:09:36.689Z,3.10
2023-02-27T20:14:38.233Z,4.00
2023-02-27T20:19:39.915Z,4.00
2023-02-27T20:24:41.805Z,5.70
2023-02-27T20:29:43.288Z,4.00
2023-02-27T20:34:45.154Z,3.30
2023-02-27T20:39:48.933Z,4.50
2023-02-27T20:44:50.848Z,9.20
2023-02-27T20:49:52.405Z,4.90
2023-02-27T20:54:55.373Z,6.10
2023-02-27T20:59:56.993Z,5.70
2023-02-27T21:04:59.751Z,5.30
2023-02-27T21:10:01.817Z,5.10
2023-02-27T21:15:03.915Z,6.60
2023-02-27T21:20:06.983Z,6.70
2023-02-27T21:25:08.756Z,6.20
2023-02-27T21:30:11.713Z,7.40
2023-02-27T21:35:13.448Z,6.40
2023-02-27T21:40:15.805Z,5.10
2023-02-27T21:45:17.297Z,4.50
2023-02-27T21:50:22.403Z,4.50
2023-02-27T21:55:23.936Z,6.80
2023-02-27T22:00:28.566Z,6.70
2023-02-27T22:05:30.601Z,6.40
2023-02-27T22:10:36.162Z,5.50
2023-02-27T22:15:38.406Z,5.30
2023-02-27T22:20:40.895Z,4.30
2023-02-27T22:25:42.522Z,4.00
2023-02-27T22:30:45.874Z,3.90
2023-02-27T22:35:47.682Z,3.90
2023-02-27T22:40:49.518Z,3.40
2023-02-27T22:45:51.036Z,5.70
2023-02-27T22:51:09.038Z,5.10
2023-02-27T22:56:12.972Z,4.70
2023-02-27T23:01:18.997Z,4.90
2023-02-27T23:06:25.150Z,4.90
2023-02-27T23:11:27.012Z,4.70
2023-02-27T23:16:28.819Z,4.20
2023-02-27T23:21:37.038Z,6.90
2023-02-27T23:26:41.394Z,8.50
2023-02-27T23:31:43.272Z,8.70
2023-02-27T23:36:45.097Z,9.40
2023-02-27T23:41:46.586Z,10.20
2023-02-27T23:46:48.124Z,9.00
2023-02-27T23:51:49.687Z,9.10
2023-02-27T23:56:51.198Z,9.80
